createdAt,value
2023-03-11T00:00:56.810Z,81.20
2023-03-11T00:03:24.837Z,81.10
2023-03-11T00:05:53.873Z,80.60
2023-03-11T00:08:24.276Z,78.70
2023-03-11T00:10:55.132Z,79.20
2023-03-11T00:13:23.161Z,78.80
2023-03-11T00:15:55.953Z,78.20
2023-03-11T00:18:28.095Z,78.10
2023-03-11T00:20:56.699Z,78.60
2023-03-11T00:23:26.045Z,79.10
2023-03-11T00:25:53.556Z,78.70
2023-03-11T00:28:25.282Z,78.60
2023-03-11T00:30:52.676Z,77.40
2023-03-11T00:33:20.596Z,78.00
2023-03-11T00:35:48.063Z,77.80
2023-03-11T00:38:16.768Z,78.10
2023-03-11T00:40:46.640Z,76.70
2023-03-11T00:43:14.662Z,76.70
2023-03-11T00:45:42.329Z,78.10
2023-03-11T00:48:09.601Z,77.70
2023-03-11T00:50:37.745Z,76.90
2023-03-11T00:53:06.245Z,77.20
2023-03-11T00:55:35.159Z,76.80
2023-03-11T00:58:07.201Z,77.20
2023-03-11T01:00:47.474Z,76.90
2023-03-11T01:03:14.864Z,75.80
2023-03-11T01:05:42.167Z,76.90
2023-03-11T01:08:09.553Z,77.10
2023-03-11T01:10:37.275Z,79.80
2023-03-11T01:13:06.189Z,79.70
2023-03-11T01:15:36.212Z,77.30
2023-03-11T01:18:04.804Z,78.80
2023-03-11T01:20:34.533Z,78.20
2023-03-11T01:23:02.081Z,79.20
2023-03-11T01:25:29.477Z,79.20
2023-03-11T01:27:59.104Z,80.60
2023-03-11T01:30:28.370Z,78.70
2023-03-11T01:32:57.788Z,79.40
2023-03-11T01:35:27.490Z,79.40
2023-03-11T01:37:55.369Z,79.20
2023-03-11T01:40:38.733Z,78.70
2023-03-11T01:43:38.869Z,78.60
2023-03-11T01:46:17.124Z,78.70
2023-03-11T01:48:50.694Z,78.60
2023-03-11T01:51:25.961Z,78.50
2023-03-11T01:53:54.935Z,77.60
2023-03-11T01:56:23.731Z,78.30
2023-03-11T01:58:53.772Z,78.30
2023-03-11T02:01:22.753Z,78.80
2023-03-11T02:03:50.934Z,78.00
2023-03-11T02:06:22.892Z,77.10
2023-03-11T02:08:51.338Z,79.00
2023-03-11T02:11:26.351Z,80.70
2023-03-11T02:13:57.129Z,80.10
2023-03-11T02:16:25.915Z,81.80
2023-03-11T02:18:53.520Z,82.70
2023-03-11T02:21:26.953Z,84.80
2023-03-11T02:24:17.528Z,85.20
2023-03-11T02:27:05.537Z,85.90
2023-03-11T02:29:33.983Z,85.60
2023-03-11T02:32:06.199Z,86.10
2023-03-11T02:34:36.993Z,86.10
2023-03-11T02:37:07.365Z,87.40
2023-03-11T02:39:36.003Z,87.80
2023-03-11T02:42:26.433Z,87.50
2023-03-11T02:45:02.738Z,86.90
2023-03-11T02:47:31.090Z,86.30
2023-03-11T02:49:58.530Z,87.10
2023-03-11T02:52:27.854Z,88.30
2023-03-11T02:54:55.971Z,87.50
2023-03-11T02:57:23.419Z,86.30
2023-03-11T02:59:50.812Z,87.20
2023-03-11T03:02:18.618Z,86.10
2023-03-11T03:04:46.055Z,86.80
2023-03-11T03:07:13.377Z,87.40
2023-03-11T03:09:40.778Z,86.50
2023-03-11T03:12:08.397Z,87.20
2023-03-11T03:14:36.956Z,87.40
2023-03-11T03:17:04.641Z,86.70
2023-03-11T03:19:32.044Z,87.30
2023-03-11T03:21:59.775Z,87.30
2023-03-11T03:24:27.182Z,87.60
2023-03-11T03:26:54.660Z,89.20
2023-03-11T03:29:22.077Z,86.00
2023-03-11T03:31:50.238Z,86.90
2023-03-11T03:34:17.687Z,87.30
2023-03-11T03:36:45.169Z,87.50
2023-03-11T03:39:12.814Z,88.10
2023-03-11T03:41:40.207Z,86.30
2023-03-11T03:44:08.718Z,87.20
2023-03-11T03:46:38.520Z,87.40
2023-03-11T03:49:08.089Z,87.10
2023-03-11T03:51:36.004Z,88.20
2023-03-11T03:54:15.405Z,87.80
2023-03-11T03:56:43.424Z,87.50
2023-03-11T03:59:10.859Z,87.90
2023-03-11T04:01:42.510Z,87.00
2023-03-11T04:04:10.176Z,87.50
2023-03-11T04:06:37.608Z,90.00
2023-03-11T04:09:07.501Z,89.00
2023-03-11T04:11:35.819Z,88.50
2023-03-11T04:14:05.491Z,88.10
2023-03-11T04:16:36.126Z,88.30
2023-03-11T04:19:10.584Z,89.00
2023-03-11T04:21:38.223Z,88.80
2023-03-11T04:24:06.062Z,88.50
2023-03-11T04:26:36.685Z,88.60
2023-03-11T04:29:05.828Z,88.70
2023-03-11T04:31:39.320Z,89.40
2023-03-11T04:34:08.001Z,89.70
2023-03-11T04:36:36.948Z,90.30
2023-03-11T04:39:05.137Z,90.50
2023-03-11T04:41:37.668Z,90.20
2023-03-11T04:44:08.207Z,90.20
2023-03-11T04:46:35.596Z,90.40
2023-03-11T04:49:05.536Z,90.40
2023-03-11T04:51:32.928Z,90.30
2023-03-11T04:54:00.259Z,90.30
2023-03-11T04:56:29.761Z,90.10
2023-03-11T04:58:58.197Z,89.90
2023-03-11T05:01:26.699Z,90.40
2023-03-11T05:03:55.186Z,90.60
2023-03-11T05:06:22.639Z,90.60
2023-03-11T05:08:49.982Z,91.10
2023-03-11T05:11:17.388Z,91.00
2023-03-11T05:13:47.278Z,91.00
2023-03-11T05:16:15.212Z,90.80
2023-03-11T05:18:42.559Z,91.20
2023-03-11T05:21:12.502Z,91.20
2023-03-11T05:23:40.269Z,91.50
2023-03-11T05:26:08.080Z,91.40
2023-03-11T05:28:35.914Z,91.40
2023-03-11T05:31:07.370Z,91.30
2023-03-11T05:33:35.841Z,91.70
2023-03-11T05:36:10.121Z,92.00
2023-03-11T05:38:40.359Z,91.80
2023-03-11T05:41:08.027Z,91.70
2023-03-11T05:43:36.643Z,92.10
2023-03-11T05:46:04.584Z,92.10
2023-03-11T05:48:32.745Z,92.30
2023-03-11T05:51:00.214Z,92.90
2023-03-11T05:53:27.885Z,93.00
2023-03-11T05:56:00.051Z,93.00
2023-03-11T05:58:29.609Z,92.90
2023-03-11T06:00:57.581Z,92.50
2023-03-11T06:03:25.060Z,92.90
2023-03-11T06:05:53.132Z,93.30
2023-03-11T06:08:21.950Z,92.80
2023-03-11T06:10:49.358Z,93.00
2023-03-11T06:13:18.689Z,92.80
2023-03-11T06:15:51.972Z,92.90
2023-03-11T06:18:21.006Z,93.10
2023-03-11T06:20:48.920Z,93.60
2023-03-11T06:23:16.956Z,93.20
2023-03-11T06:25:44.305Z,93.40
2023-03-11T06:28:12.096Z,93.60
2023-03-11T06:30:40.204Z,93.50
2023-03-11T06:33:15.076Z,93.70
2023-03-11T06:35:43.233Z,93.60
2023-03-11T06:38:10.551Z,93.80
2023-03-11T06:40:38.336Z,92.90
2023-03-11T06:43:05.837Z,90.90
2023-03-11T06:45:36.399Z,90.20
2023-03-11T06:48:03.897Z,87.20
2023-03-11T06:50:32.310Z,88.30
2023-03-11T06:53:03.030Z,86.60
2023-03-11T06:55:31.871Z,84.40
2023-03-11T06:58:00.263Z,83.30
2023-03-11T07:00:28.260Z,87.60
2023-03-11T07:02:58.769Z,85.70
2023-03-11T07:05:26.552Z,79.80
2023-03-11T07:07:59.300Z,76.90
2023-03-11T07:10:26.988Z,74.20
2023-03-11T07:12:54.339Z,73.30
2023-03-11T07:15:21.922Z,72.10
2023-03-11T07:17:49.313Z,71.60
2023-03-11T07:20:17.685Z,70.70
2023-03-11T07:22:45.196Z,70.40
2023-03-11T07:25:12.583Z,68.80
2023-03-11T07:27:39.883Z,67.40
2023-03-11T07:30:07.966Z,67.80
2023-03-11T07:32:35.417Z,66.50
2023-03-11T07:35:02.869Z,64.20
2023-03-11T07:37:30.277Z,63.20
2023-03-11T07:39:57.575Z,61.90
2023-03-11T07:42:24.951Z,65.00
2023-03-11T07:44:54.745Z,67.40
2023-03-11T07:47:22.099Z,73.60
2023-03-11T07:49:49.497Z,78.00
2023-03-11T07:52:16.847Z,78.50
2023-03-11T07:54:45.349Z,80.20
2023-03-11T07:57:17.028Z,80.90
2023-03-11T07:59:44.313Z,81.80
2023-03-11T08:02:11.978Z,83.10
2023-03-11T08:04:39.497Z,83.70
2023-03-11T08:07:06.814Z,84.00
2023-03-11T08:09:36.333Z,84.80
2023-03-11T08:12:03.745Z,86.60
2023-03-11T08:14:31.129Z,87.10
2023-03-11T08:16:58.458Z,88.80
2023-03-11T08:19:25.844Z,89.60
2023-03-11T08:21:53.177Z,90.00
2023-03-11T08:24:20.532Z,90.80
2023-03-11T08:26:47.831Z,91.50
2023-03-11T08:29:15.220Z,92.50
2023-03-11T08:31:42.505Z,91.60
2023-03-11T08:34:11.009Z,92.20
2023-03-11T08:36:38.515Z,93.40
2023-03-11T08:39:06.227Z,94.50
2023-03-11T08:41:33.876Z,94.10
2023-03-11T08:44:01.352Z,94.20
2023-03-11T08:46:37.471Z,94.00
2023-03-11T08:49:06.208Z,94.50
2023-03-11T08:51:35.312Z,95.20
2023-03-11T08:54:04.086Z,96.20
2023-03-11T08:56:31.578Z,96.30
2023-03-11T08:58:59.584Z,93.90
2023-03-11T09:01:26.963Z,90.80
2023-03-11T09:03:54.246Z,84.20
2023-03-11T09:06:21.810Z,76.70
2023-03-11T09:08:49.890Z,75.40
2023-03-11T09:11:19.128Z,73.40
2023-03-11T09:13:46.502Z,67.20
2023-03-11T09:16:20.302Z,70.70
2023-03-11T09:18:47.779Z,71.00
2023-03-11T09:21:15.124Z,69.40
2023-03-11T09:23:44.346Z,67.50
2023-03-11T09:26:13.080Z,67.50
2023-03-11T09:28:41.135Z,72.40
2023-03-11T09:31:08.933Z,72.90
2023-03-11T09:33:40.906Z,74.40
2023-03-11T09:36:12.412Z,70.40
2023-03-11T09:38:39.813Z,70.50
2023-03-11T09:41:25.665Z,74.10
2023-03-11T09:44:20.079Z,72.00
2023-03-11T09:47:05.858Z,79.30
2023-03-11T09:49:54.129Z,79.70
2023-03-11T09:52:30.377Z,85.70
2023-03-11T09:54:59.832Z,79.40
2023-03-11T09:57:32.119Z,78.30
2023-03-11T10:00:04.282Z,75.00
2023-03-11T10:02:41.656Z,70.70
2023-03-11T10:05:16.925Z,72.60
2023-03-11T10:07:51.726Z,79.40
2023-03-11T10:10:19.096Z,74.70
2023-03-11T10:13:20.929Z,88.90
2023-03-11T10:16:23.032Z,91.30
2023-03-11T10:19:10.548Z,93.00
2023-03-11T10:22:07.005Z,94.10
2023-03-11T10:24:40.885Z,92.30
2023-03-11T10:27:27.506Z,91.60
2023-03-11T10:30:06.234Z,92.90
2023-03-11T10:32:36.892Z,94.30
2023-03-11T10:35:21.033Z,95.80
2023-03-11T10:38:01.020Z,96.30
2023-03-11T10:40:34.942Z,96.40
2023-03-11T10:43:07.316Z,97.80
2023-03-11T10:45:41.301Z,97.60
2023-03-11T10:48:14.564Z,97.40
2023-03-11T10:50:57.016Z,97.90
2023-03-11T10:53:25.631Z,99.20
2023-03-11T10:55:55.217Z,99.00
2023-03-11T10:58:28.276Z,98.70
2023-03-11T11:01:16.742Z,97.80
2023-03-11T11:03:49.974Z,97.60
2023-03-11T11:06:37.728Z,97.80
2023-03-11T11:09:09.099Z,97.20
2023-03-11T11:11:36.560Z,97.60
2023-03-11T11:14:03.905Z,96.30
2023-03-11T11:16:34.283Z,97.00
2023-03-11T11:19:08.479Z,98.10
2023-03-11T11:21:50.825Z,97.80
2023-03-11T11:24:25.279Z,96.80
2023-03-11T11:27:27.464Z,95.70
2023-03-11T11:30:24.566Z,97.10
2023-03-11T11:32:55.797Z,96.50
2023-03-11T11:35:25.105Z,95.40
2023-03-11T11:37:55.653Z,96.10
2023-03-11T11:40:32.315Z,95.30
2023-03-11T11:43:12.326Z,93.50
2023-03-11T11:46:02.196Z,94.00
2023-03-11T11:48:37.313Z,91.60
2023-03-11T11:51:30.812Z,92.50
2023-03-11T11:54:05.189Z,93.40
2023-03-11T11:56:32.696Z,92.90
2023-03-11T11:59:00.917Z,92.90
2023-03-11T12:01:45.661Z,90.40
2023-03-11T12:04:31.612Z,90.00
2023-03-11T12:07:15.143Z,88.90
2023-03-11T12:09:58.123Z,86.20
2023-03-11T12:12:37.028Z,83.30
2023-03-11T12:15:18.978Z,83.60
2023-03-11T12:17:47.551Z,84.80
2023-03-11T12:20:34.861Z,82.90
2023-03-11T12:23:05.173Z,91.40
2023-03-11T12:26:10.101Z,89.60
2023-03-11T12:28:48.175Z,86.20
2023-03-11T12:31:16.313Z,89.60
2023-03-11T12:33:47.456Z,90.50
2023-03-11T12:36:23.614Z,89.20
2023-03-11T12:38:51.985Z,88.70
2023-03-11T12:41:38.837Z,86.60
2023-03-11T12:44:22.585Z,86.40
2023-03-11T12:46:59.164Z,87.70
2023-03-11T12:49:32.301Z,86.80
2023-03-11T12:52:11.688Z,87.70
2023-03-11T12:54:50.892Z,90.10
2023-03-11T12:57:18.566Z,89.20
2023-03-11T13:00:09.705Z,88.90
2023-03-11T13:03:14.683Z,90.10
2023-03-11T13:05:59.226Z,86.20
2023-03-11T13:08:28.385Z,87.60
2023-03-11T13:10:56.523Z,88.30
2023-03-11T13:13:39.268Z,87.40
2023-03-11T13:16:12.812Z,87.10
2023-03-11T13:18:41.668Z,84.00
2023-03-11T13:21:38.232Z,79.80
2023-03-11T13:24:25.844Z,79.40
2023-03-11T13:26:59.387Z,79.40
2023-03-11T13:29:43.968Z,79.10
2023-03-11T13:32:43.354Z,79.10
2023-03-11T13:35:28.555Z,76.30
2023-03-11T13:38:12.861Z,76.30
2023-03-11T13:40:45.402Z,74.80
2023-03-11T13:43:19.046Z,73.80
2023-03-11T13:46:28.591Z,73.10
2023-03-11T13:49:05.062Z,72.50
2023-03-11T13:51:43.405Z,74.60
2023-03-11T13:54:20.044Z,75.40
2023-03-11T13:56:54.899Z,74.00
2023-03-11T13:59:30.890Z,73.20
2023-03-11T14:02:13.517Z,76.50
2023-03-11T14:04:47.277Z,76.00
2023-03-11T14:07:27.776Z,76.60
2023-03-11T14:10:18.292Z,75.50
2023-03-11T14:12:46.057Z,73.20
2023-03-11T14:15:21.609Z,72.40
2023-03-11T14:17:50.414Z,73.70
2023-03-11T14:20:22.472Z,76.50
2023-03-11T14:22:52.856Z,76.70
2023-03-11T14:25:24.798Z,75.30
2023-03-11T14:27:56.275Z,75.30
2023-03-11T14:30:30.273Z,75.50
2023-03-11T14:33:22.002Z,74.70
2023-03-11T14:35:53.621Z,76.00
2023-03-11T14:38:26.453Z,74.70
2023-03-11T14:41:00.520Z,76.00
2023-03-11T14:43:33.443Z,76.50
2023-03-11T14:46:02.298Z,76.70
2023-03-11T14:48:34.961Z,77.20
2023-03-11T14:51:04.740Z,79.20
2023-03-11T14:53:51.099Z,81.50
2023-03-11T14:56:21.715Z,80.80
2023-03-11T14:59:13.962Z,78.70
2023-03-11T15:01:43.790Z,79.40
2023-03-11T15:04:14.515Z,84.00
2023-03-11T15:06:46.630Z,86.20
2023-03-11T15:09:22.938Z,84.70
2023-03-11T15:11:55.229Z,85.50
2023-03-11T15:14:26.492Z,86.10
2023-03-11T15:17:08.143Z,86.30
2023-03-11T15:19:35.570Z,85.20
2023-03-11T15:22:25.637Z,86.90
2023-03-11T15:24:56.012Z,90.00
2023-03-11T15:27:37.604Z,89.10
2023-03-11T15:30:20.273Z,89.80
2023-03-11T15:32:48.683Z,87.20
2023-03-11T15:35:21.831Z,86.50
2023-03-11T15:37:51.809Z,86.90
2023-03-11T15:40:23.431Z,85.80
2023-03-11T15:43:33.997Z,85.90
2023-03-11T15:46:03.059Z,88.20
2023-03-11T15:48:31.276Z,87.70
2023-03-11T15:51:00.447Z,87.00
2023-03-11T15:53:30.110Z,87.20
2023-03-11T15:56:06.859Z,88.80
2023-03-11T15:58:35.685Z,89.40
2023-03-11T16:01:03.273Z,88.30
2023-03-11T16:03:31.573Z,89.40
2023-03-11T16:05:59.157Z,90.10
2023-03-11T16:08:26.400Z,90.60
2023-03-11T16:10:53.703Z,90.60
2023-03-11T16:13:21.008Z,90.70
2023-03-11T16:15:48.402Z,90.50
2023-03-11T16:18:15.977Z,91.00
2023-03-11T16:20:47.180Z,91.10
2023-03-11T16:23:23.705Z,91.40
2023-03-11T16:25:53.511Z,91.10
2023-03-11T16:28:20.856Z,91.30
2023-03-11T16:30:50.666Z,91.80
2023-03-11T16:33:18.225Z,92.10
2023-03-11T16:35:46.236Z,92.30
2023-03-11T16:38:13.755Z,92.20
2023-03-11T16:40:41.056Z,92.20
2023-03-11T16:43:10.917Z,92.40
2023-03-11T16:45:38.381Z,92.60
2023-03-11T16:48:07.238Z,93.10
2023-03-11T16:50:37.323Z,93.20
2023-03-11T16:53:05.268Z,94.10
2023-03-11T16:55:32.686Z,93.50
2023-03-11T16:58:00.168Z,93.50
2023-03-11T17:00:27.895Z,93.90
2023-03-11T17:02:55.243Z,94.10
2023-03-11T17:05:22.798Z,94.10
2023-03-11T17:08:00.664Z,95.20
2023-03-11T17:10:28.764Z,94.60
2023-03-11T17:12:56.453Z,95.40
2023-03-11T17:15:23.794Z,95.30
2023-03-11T17:17:51.561Z,95.40
2023-03-11T17:20:21.515Z,96.00
2023-03-11T17:22:49.192Z,96.80
2023-03-11T17:25:16.629Z,96.40
2023-03-11T17:27:43.988Z,95.90
2023-03-11T17:30:12.029Z,96.50
2023-03-11T17:32:39.426Z,96.70
2023-03-11T17:35:07.725Z,95.60
2023-03-11T17:37:35.363Z,95.60
2023-03-11T17:40:02.846Z,96.40
2023-03-11T17:42:30.264Z,95.50
2023-03-11T17:44:57.979Z,95.70
2023-03-11T17:47:28.252Z,96.00
2023-03-11T17:49:55.735Z,96.10
2023-03-11T17:52:23.077Z,96.60
2023-03-11T17:54:50.608Z,95.80
2023-03-11T17:57:17.922Z,96.50
2023-03-11T17:59:45.422Z,95.50
2023-03-11T18:02:14.323Z,97.00
2023-03-11T18:04:45.879Z,96.00
2023-03-11T18:07:13.419Z,97.00
2023-03-11T18:09:41.064Z,96.60
2023-03-11T18:12:08.462Z,95.30
2023-03-11T18:14:36.838Z,96.50
2023-03-11T18:17:04.341Z,96.00
2023-03-11T18:19:31.630Z,96.00
2023-03-11T18:21:58.993Z,97.00
2023-03-11T18:24:26.327Z,96.90
2023-03-11T18:26:53.731Z,96.50
2023-03-11T18:29:21.138Z,96.20
2023-03-11T18:31:48.753Z,96.00
2023-03-11T18:34:16.136Z,96.10
2023-03-11T18:36:43.452Z,95.60
2023-03-11T18:39:12.656Z,96.20
2023-03-11T18:41:40.589Z,96.00
2023-03-11T18:44:08.029Z,96.60
2023-03-11T18:46:35.613Z,96.80
2023-03-11T18:49:04.149Z,96.80
2023-03-11T18:51:32.477Z,96.50
2023-03-11T18:54:00.475Z,96.30
2023-03-11T18:56:31.001Z,96.60
2023-03-11T18:59:00.150Z,96.90
2023-03-11T19:01:28.345Z,96.50
2023-03-11T19:03:57.726Z,96.60
2023-03-11T19:06:27.216Z,97.20
2023-03-11T19:08:54.933Z,96.70
2023-03-11T19:11:23.935Z,96.30
2023-03-11T19:13:52.044Z,96.70
2023-03-11T19:16:22.390Z,96.50
2023-03-11T19:18:50.377Z,96.40
2023-03-11T19:21:18.162Z,96.80
2023-03-11T19:23:45.967Z,96.90
2023-03-11T19:26:13.575Z,96.70
2023-03-11T19:28:41.052Z,97.30
2023-03-11T19:31:08.485Z,97.10
2023-03-11T19:33:36.303Z,97.10
2023-03-11T19:36:05.658Z,96.90
2023-03-11T19:38:33.487Z,97.00
2023-03-11T19:41:03.889Z,97.00
2023-03-11T19:43:31.578Z,97.20
2023-03-11T19:45:59.132Z,97.40
2023-03-11T19:48:26.535Z,97.70
2023-03-11T19:50:54.471Z,97.90
2023-03-11T19:53:23.193Z,98.20
2023-03-11T19:55:53.204Z,98.80
2023-03-11T19:58:21.685Z,98.40
2023-03-11T20:00:49.143Z,99.00
2023-03-11T20:03:17.232Z,99.30
2023-03-11T20:05:46.904Z,99.20
2023-03-11T20:08:16.536Z,99.10
2023-03-11T20:10:46.495Z,99.30
2023-03-11T20:13:14.857Z,99.60
2023-03-11T20:15:42.422Z,99.50
2023-03-11T20:18:10.102Z,99.40
2023-03-11T20:20:39.190Z,99.80
2023-03-11T20:23:06.663Z,99.60
2023-03-11T20:25:34.922Z,99.90
2023-03-11T20:28:02.488Z,99.90
2023-03-11T20:30:29.942Z,99.90
2023-03-11T20:32:57.307Z,99.90
2023-03-11T20:35:24.681Z,99.90
2023-03-11T20:37:52.100Z,99.90
2023-03-11T20:40:19.747Z,99.90
2023-03-11T20:42:47.433Z,99.90
2023-03-11T20:45:21.383Z,99.90
2023-03-11T20:47:50.065Z,99.90
2023-03-11T20:50:17.516Z,99.90
2023-03-11T20:52:45.022Z,99.90
2023-03-11T20:55:13.286Z,99.90
2023-03-11T20:57:40.901Z,99.90
2023-03-11T21:00:11.878Z,99.90
2023-03-11T21:02:41.119Z,99.90
2023-03-11T21:05:09.852Z,99.90
2023-03-11T21:07:37.310Z,99.90
2023-03-11T21:10:08.259Z,99.90
2023-03-11T21:12:35.746Z,99.80
2023-03-11T21:15:04.504Z,99.90
2023-03-11T21:17:33.077Z,99.60
2023-03-11T21:20:00.602Z,99.90
2023-03-11T21:22:28.784Z,99.90
2023-03-11T21:24:56.129Z,99.60
2023-03-11T21:27:27.248Z,99.90
2023-03-11T21:29:59.076Z,99.50
2023-03-11T21:32:28.116Z,99.60
2023-03-11T21:34:57.435Z,99.90
2023-03-11T21:37:26.150Z,99.50
2023-03-11T21:39:54.544Z,99.90
2023-03-11T21:42:22.894Z,99.60
2023-03-11T21:44:51.706Z,99.90
2023-03-11T21:47:20.115Z,99.90
2023-03-11T21:49:47.682Z,99.80
2023-03-11T21:52:15.105Z,99.10
2023-03-11T21:54:42.487Z,99.40
2023-03-11T21:57:11.463Z,99.00
2023-03-11T21:59:39.089Z,99.50
2023-03-11T22:02:06.758Z,99.70
2023-03-11T22:04:34.222Z,98.60
2023-03-11T22:07:01.819Z,99.10
2023-03-11T22:09:29.385Z,98.80
2023-03-11T22:11:56.772Z,98.80
2023-03-11T22:14:24.789Z,98.80
2023-03-11T22:16:52.655Z,98.60
2023-03-11T22:19:20.205Z,99.00
2023-03-11T22:21:49.083Z,98.60
2023-03-11T22:24:16.824Z,98.40
2023-03-11T22:26:44.145Z,98.50
2023-03-11T22:29:13.566Z,98.90
2023-03-11T22:31:41.420Z,98.70
2023-03-11T22:34:08.808Z,98.40
2023-03-11T22:36:36.184Z,99.20
2023-03-11T22:39:04.968Z,98.50
2023-03-11T22:41:33.105Z,98.40
2023-03-11T22:44:00.445Z,98.60
2023-03-11T22:46:27.832Z,98.60
2023-03-11T22:48:55.266Z,98.60
2023-03-11T22:51:22.959Z,98.80
2023-03-11T22:53:50.349Z,98.50
2023-03-11T22:56:18.325Z,98.90
2023-03-11T22:58:46.048Z,98.40
2023-03-11T23:01:13.595Z,98.80
2023-03-11T23:03:43.061Z,98.70
2023-03-11T23:06:13.617Z,98.70
2023-03-11T23:08:40.978Z,98.50
2023-03-11T23:11:11.617Z,97.90
2023-03-11T23:13:40.126Z,98.40
2023-03-11T23:16:11.158Z,97.50
2023-03-11T23:18:39.105Z,97.30
2023-03-11T23:21:16.886Z,97.40
2023-03-11T23:23:44.562Z,98.10
2023-03-11T23:26:12.735Z,97.80
2023-03-11T23:28:41.251Z,97.30
2023-03-11T23:31:10.523Z,98.20
2023-03-11T23:33:38.609Z,97.60
2023-03-11T23:36:11.668Z,97.30
2023-03-11T23:38:39.421Z,97.00
2023-03-11T23:41:15.625Z,97.20
2023-03-11T23:43:43.061Z,97.30
2023-03-11T23:46:10.782Z,96.20
2023-03-11T23:48:38.682Z,93.60
2023-03-11T23:51:08.244Z,92.40
2023-03-11T23:53:36.224Z,92.70
2023-03-11T23:56:09.724Z,90.90
2023-03-11T23:58:37.025Z,90.50
